sensor_id;sensor_type;location;lat;lon;timestamp;P1;durP1;ratioP1;P2;durP2;ratioP2
46651;SDS011;32377;52.182;5.398;2023-06-22T00:00:52;16.05;;;9.43;;
46651;SDS011;32377;52.182;5.398;2023-06-22T00:03:19;16.75;;;9.75;;
46651;SDS011;32377;52.182;5.398;2023-06-22T00:05:46;17.20;;;9.15;;
46651;SDS011;32377;52.182;5.398;2023-06-22T00:08:12;11.55;;;9.25;;
46651;SDS011;32377;52.182;5.398;2023-06-22T00:10:38;14.20;;;9.30;;
46651;SDS011;32377;52.182;5.398;2023-06-22T00:13:07;12.25;;;9.63;;
46651;SDS011;32377;52.182;5.398;2023-06-22T00:15:34;14.60;;;9.00;;
46651;SDS011;32377;52.182;5.398;2023-06-22T00:18:00;11.85;;;9.18;;
46651;SDS011;32377;52.182;5.398;2023-06-22T00:20:27;12.65;;;9.25;;
46651;SDS011;32377;52.182;5.398;2023-06-22T00:22:53;12.82;;;9.40;;
46651;SDS011;32377;52.182;5.398;2023-06-22T00:25:19;14.23;;;9.20;;
46651;SDS011;32377;52.182;5.398;2023-06-22T00:27:45;15.15;;;9.52;;
46651;SDS011;32377;52.182;5.398;2023-06-22T00:30:10;13.13;;;8.88;;
46651;SDS011;32377;52.182;5.398;2023-06-22T00:32:36;13.15;;;9.18;;
46651;SDS011;32377;52.182;5.398;2023-06-22T00:35:02;14.32;;;9.60;;
46651;SDS011;32377;52.182;5.398;2023-06-22T00:37:28;12.30;;;9.13;;
46651;SDS011;32377;52.182;5.398;2023-06-22T00:39:54;14.15;;;9.40;;
46651;SDS011;32377;52.182;5.398;2023-06-22T00:42:20;12.30;;;9.05;;
46651;SDS011;32377;52.182;5.398;2023-06-22T00:44:46;14.43;;;9.55;;
46651;SDS011;32377;52.182;5.398;2023-06-22T00:47:12;14.65;;;9.57;;
46651;SDS011;32377;52.182;5.398;2023-06-22T00:49:40;13.40;;;9.68;;
46651;SDS011;32377;52.182;5.398;2023-06-22T00:52:06;14.00;;;9.57;;
46651;SDS011;32377;52.182;5.398;2023-06-22T00:54:34;14.43;;;9.35;;
46651;SDS011;32377;52.182;5.398;2023-06-22T00:57:01;15.23;;;10.18;;
46651;SDS011;32377;52.182;5.398;2023-06-22T00:59:27;12.23;;;9.07;;
46651;SDS011;32377;52.182;5.398;2023-06-22T01:01:53;16.75;;;10.40;;
46651;SDS011;32377;52.182;5.398;2023-06-22T01:04:19;19.55;;;10.73;;
46651;SDS011;32377;52.182;5.398;2023-06-22T01:07:00;17.15;;;10.20;;
46651;SDS011;32377;52.182;5.398;2023-06-22T01:09:36;13.43;;;10.48;;
46651;SDS011;32377;52.182;5.398;2023-06-22T01:12:28;15.57;;;11.40;;
46651;SDS011;32377;52.182;5.398;2023-06-22T01:14:58;14.43;;;10.63;;
46651;SDS011;32377;52.182;5.398;2023-06-22T01:17:29;17.88;;;11.63;;
46651;SDS011;32377;52.182;5.398;2023-06-22T01:19:56;14.75;;;10.90;;
46651;SDS011;32377;52.182;5.398;2023-06-22T01:22:24;14.95;;;11.70;;
46651;SDS011;32377;52.182;5.398;2023-06-22T01:30:48;18.38;;;12.43;;
46651;SDS011;32377;52.182;5.398;2023-06-22T01:33:28;19.83;;;14.07;;
46651;SDS011;32377;52.182;5.398;2023-06-22T01:35:55;18.27;;;13.27;;
46651;SDS011;32377;52.182;5.398;2023-06-22T01:38:22;17.75;;;14.00;;
46651;SDS011;32377;52.182;5.398;2023-06-22T01:40:48;19.23;;;14.02;;
46651;SDS011;32377;52.182;5.398;2023-06-22T01:43:14;22.55;;;14.85;;
46651;SDS011;32377;52.182;5.398;2023-06-22T01:45:41;20.48;;;13.73;;
46651;SDS011;32377;52.182;5.398;2023-06-22T01:48:07;20.45;;;15.10;;
46651;SDS011;32377;52.182;5.398;2023-06-22T01:50:33;20.92;;;15.05;;
46651;SDS011;32377;52.182;5.398;2023-06-22T01:52:59;18.55;;;13.82;;
46651;SDS011;32377;52.182;5.398;2023-06-22T01:55:24;20.25;;;14.32;;
46651;SDS011;32377;52.182;5.398;2023-06-22T01:57:50;21.88;;;13.75;;
46651;SDS011;32377;52.182;5.398;2023-06-22T02:00:18;21.80;;;15.30;;
46651;SDS011;32377;52.182;5.398;2023-06-22T02:02:52;21.88;;;14.77;;
46651;SDS011;32377;52.182;5.398;2023-06-22T02:05:19;19.63;;;14.75;;
46651;SDS011;32377;52.182;5.398;2023-06-22T02:11:06;20.08;;;15.73;;
46651;SDS011;32377;52.182;5.398;2023-06-22T02:13:35;19.42;;;15.13;;
46651;SDS011;32377;52.182;5.398;2023-06-22T02:16:02;20.77;;;15.27;;
46651;SDS011;32377;52.182;5.398;2023-06-22T02:18:28;19.92;;;15.45;;
46651;SDS011;32377;52.182;5.398;2023-06-22T02:20:54;20.92;;;15.35;;
46651;SDS011;32377;52.182;5.398;2023-06-22T02:23:20;21.33;;;16.75;;
46651;SDS011;32377;52.182;5.398;2023-06-22T02:25:45;20.20;;;15.18;;
46651;SDS011;32377;52.182;5.398;2023-06-22T02:28:11;18.95;;;14.95;;
46651;SDS011;32377;52.182;5.398;2023-06-22T02:30:36;22.38;;;15.63;;
46651;SDS011;32377;52.182;5.398;2023-06-22T02:33:02;19.60;;;15.70;;
46651;SDS011;32377;52.182;5.398;2023-06-22T02:35:28;22.45;;;15.38;;
46651;SDS011;32377;52.182;5.398;2023-06-22T02:37:59;19.15;;;15.05;;
46651;SDS011;32377;52.182;5.398;2023-06-22T02:40:25;20.80;;;15.05;;
46651;SDS011;32377;52.182;5.398;2023-06-22T02:42:51;21.00;;;15.73;;
46651;SDS011;32377;52.182;5.398;2023-06-22T02:45:17;22.77;;;14.70;;
46651;SDS011;32377;52.182;5.398;2023-06-22T02:47:43;26.80;;;15.68;;
46651;SDS011;32377;52.182;5.398;2023-06-22T02:50:08;22.58;;;15.13;;
46651;SDS011;32377;52.182;5.398;2023-06-22T02:52:34;22.38;;;14.77;;
46651;SDS011;32377;52.182;5.398;2023-06-22T02:55:00;28.88;;;15.30;;
46651;SDS011;32377;52.182;5.398;2023-06-22T02:57:26;21.50;;;16.85;;
46651;SDS011;32377;52.182;5.398;2023-06-22T02:59:51;23.33;;;17.63;;
46651;SDS011;32377;52.182;5.398;2023-06-22T03:02:17;21.70;;;17.48;;
46651;SDS011;32377;52.182;5.398;2023-06-22T03:04:45;23.10;;;16.33;;
46651;SDS011;32377;52.182;5.398;2023-06-22T03:07:14;22.63;;;15.90;;
46651;SDS011;32377;52.182;5.398;2023-06-22T03:09:40;23.95;;;17.05;;
46651;SDS011;32377;52.182;5.398;2023-06-22T03:12:07;19.42;;;16.08;;
46651;SDS011;32377;52.182;5.398;2023-06-22T03:14:33;22.17;;;16.27;;
46651;SDS011;32377;52.182;5.398;2023-06-22T03:16:58;23.98;;;16.88;;
46651;SDS011;32377;52.182;5.398;2023-06-22T03:19:28;21.40;;;16.17;;
46651;SDS011;32377;52.182;5.398;2023-06-22T03:21:59;22.73;;;17.02;;
46651;SDS011;32377;52.182;5.398;2023-06-22T03:24:28;21.63;;;17.35;;
46651;SDS011;32377;52.182;5.398;2023-06-22T03:26:54;21.88;;;16.50;;
46651;SDS011;32377;52.182;5.398;2023-06-22T03:29:20;26.58;;;18.30;;
46651;SDS011;32377;52.182;5.398;2023-06-22T03:31:46;25.00;;;17.45;;
46651;SDS011;32377;52.182;5.398;2023-06-22T03:34:11;29.45;;;17.88;;
46651;SDS011;32377;52.182;5.398;2023-06-22T03:36:37;23.15;;;16.25;;
46651;SDS011;32377;52.182;5.398;2023-06-22T03:39:03;28.48;;;18.25;;
46651;SDS011;32377;52.182;5.398;2023-06-22T03:41:28;26.90;;;17.88;;
46651;SDS011;32377;52.182;5.398;2023-06-22T03:43:54;24.38;;;17.02;;
46651;SDS011;32377;52.182;5.398;2023-06-22T03:46:19;23.98;;;16.92;;
46651;SDS011;32377;52.182;5.398;2023-06-22T03:48:45;22.20;;;16.85;;
46651;SDS011;32377;52.182;5.398;2023-06-22T03:51:11;25.95;;;17.85;;
46651;SDS011;32377;52.182;5.398;2023-06-22T03:53:36;21.00;;;16.48;;
46651;SDS011;32377;52.182;5.398;2023-06-22T03:58:45;24.58;;;17.90;;
46651;SDS011;32377;52.182;5.398;2023-06-22T04:01:11;24.40;;;17.85;;
46651;SDS011;32377;52.182;5.398;2023-06-22T04:03:37;25.85;;;17.60;;
46651;SDS011;32377;52.182;5.398;2023-06-22T04:06:03;29.77;;;17.52;;
46651;SDS011;32377;52.182;5.398;2023-06-22T04:08:29;26.10;;;18.15;;
46651;SDS011;32377;52.182;5.398;2023-06-22T04:10:55;27.73;;;19.05;;
46651;SDS011;32377;52.182;5.398;2023-06-22T04:13:20;27.77;;;19.83;;
46651;SDS011;32377;52.182;5.398;2023-06-22T04:15:46;30.17;;;19.85;;
46651;SDS011;32377;52.182;5.398;2023-06-22T04:18:12;26.60;;;20.67;;
46651;SDS011;32377;52.182;5.398;2023-06-22T04:20:38;32.38;;;21.15;;
46651;SDS011;32377;52.182;5.398;2023-06-22T04:23:04;29.02;;;19.77;;
46651;SDS011;32377;52.182;5.398;2023-06-22T04:25:30;29.60;;;21.60;;
46651;SDS011;32377;52.182;5.398;2023-06-22T04:27:56;29.25;;;21.95;;
46651;SDS011;32377;52.182;5.398;2023-06-22T04:30:21;28.55;;;21.42;;
46651;SDS011;32377;52.182;5.398;2023-06-22T04:32:47;28.80;;;21.60;;
46651;SDS011;32377;52.182;5.398;2023-06-22T04:35:21;33.05;;;22.70;;
46651;SDS011;32377;52.182;5.398;2023-06-22T04:37:47;28.88;;;22.55;;
46651;SDS011;32377;52.182;5.398;2023-06-22T04:40:14;33.28;;;23.13;;
46651;SDS011;32377;52.182;5.398;2023-06-22T04:42:40;29.65;;;22.83;;
46651;SDS011;32377;52.182;5.398;2023-06-22T04:45:18;30.17;;;22.35;;
46651;SDS011;32377;52.182;5.398;2023-06-22T04:47:44;35.88;;;23.67;;
46651;SDS011;32377;52.182;5.398;2023-06-22T04:50:11;36.85;;;23.10;;
46651;SDS011;32377;52.182;5.398;2023-06-22T04:52:37;29.77;;;22.27;;
46651;SDS011;32377;52.182;5.398;2023-06-22T04:55:03;32.83;;;24.20;;
46651;SDS011;32377;52.182;5.398;2023-06-22T04:57:29;33.60;;;24.95;;
46651;SDS011;32377;52.182;5.398;2023-06-22T05:00:01;36.83;;;25.42;;
46651;SDS011;32377;52.182;5.398;2023-06-22T05:02:40;41.17;;;25.30;;
46651;SDS011;32377;52.182;5.398;2023-06-22T05:05:06;38.17;;;25.15;;
46651;SDS011;32377;52.182;5.398;2023-06-22T05:07:35;44.53;;;26.90;;
46651;SDS011;32377;52.182;5.398;2023-06-22T05:10:02;36.00;;;27.05;;
46651;SDS011;32377;52.182;5.398;2023-06-22T05:12:29;37.28;;;26.85;;
46651;SDS011;32377;52.182;5.398;2023-06-22T05:14:55;40.35;;;28.05;;
46651;SDS011;32377;52.182;5.398;2023-06-22T05:17:21;41.25;;;28.58;;
46651;SDS011;32377;52.182;5.398;2023-06-22T05:19:46;43.83;;;30.30;;
46651;SDS011;32377;52.182;5.398;2023-06-22T05:22:16;43.30;;;30.15;;
46651;SDS011;32377;52.182;5.398;2023-06-22T05:24:42;44.42;;;33.28;;
46651;SDS011;32377;52.182;5.398;2023-06-22T05:27:08;45.17;;;33.63;;
46651;SDS011;32377;52.182;5.398;2023-06-22T05:29:34;44.75;;;33.90;;
46651;SDS011;32377;52.182;5.398;2023-06-22T05:32:01;50.17;;;32.58;;
46651;SDS011;32377;52.182;5.398;2023-06-22T05:34:26;48.88;;;34.00;;
46651;SDS011;32377;52.182;5.398;2023-06-22T05:36:52;47.80;;;34.50;;
46651;SDS011;32377;52.182;5.398;2023-06-22T05:39:18;44.67;;;33.08;;
46651;SDS011;32377;52.182;5.398;2023-06-22T05:41:44;47.28;;;35.15;;
46651;SDS011;32377;52.182;5.398;2023-06-22T05:44:10;51.95;;;34.53;;
46651;SDS011;32377;52.182;5.398;2023-06-22T05:46:36;52.55;;;36.83;;
46651;SDS011;32377;52.182;5.398;2023-06-22T05:49:01;43.88;;;33.38;;
46651;SDS011;32377;52.182;5.398;2023-06-22T05:51:27;45.92;;;33.97;;
46651;SDS011;32377;52.182;5.398;2023-06-22T05:53:53;49.38;;;34.40;;
46651;SDS011;32377;52.182;5.398;2023-06-22T05:56:18;46.85;;;34.15;;
46651;SDS011;32377;52.182;5.398;2023-06-22T05:58:45;47.80;;;34.25;;
46651;SDS011;32377;52.182;5.398;2023-06-22T06:01:11;45.63;;;32.08;;
46651;SDS011;32377;52.182;5.398;2023-06-22T06:03:37;44.05;;;32.38;;
46651;SDS011;32377;52.182;5.398;2023-06-22T06:06:06;43.58;;;33.15;;
46651;SDS011;32377;52.182;5.398;2023-06-22T06:08:32;44.20;;;30.60;;
46651;SDS011;32377;52.182;5.398;2023-06-22T06:10:58;36.92;;;28.25;;
46651;SDS011;32377;52.182;5.398;2023-06-22T06:13:23;38.80;;;28.73;;
46651;SDS011;32377;52.182;5.398;2023-06-22T06:15:49;39.70;;;30.20;;
46651;SDS011;32377;52.182;5.398;2023-06-22T06:18:16;40.10;;;29.40;;
46651;SDS011;32377;52.182;5.398;2023-06-22T06:20:42;41.67;;;30.08;;
46651;SDS011;32377;52.182;5.398;2023-06-22T06:23:07;43.42;;;30.92;;
46651;SDS011;32377;52.182;5.398;2023-06-22T06:25:33;37.63;;;28.90;;
46651;SDS011;32377;52.182;5.398;2023-06-22T06:27:59;38.15;;;27.38;;
46651;SDS011;32377;52.182;5.398;2023-06-22T06:30:24;35.00;;;27.33;;
46651;SDS011;32377;52.182;5.398;2023-06-22T06:32:50;33.65;;;25.67;;
46651;SDS011;32377;52.182;5.398;2023-06-22T06:35:16;34.15;;;26.27;;
46651;SDS011;32377;52.182;5.398;2023-06-22T06:37:43;33.22;;;26.88;;
46651;SDS011;32377;52.182;5.398;2023-06-22T06:40:10;32.92;;;25.95;;
46651;SDS011;32377;52.182;5.398;2023-06-22T06:42:37;35.35;;;27.85;;
46651;SDS011;32377;52.182;5.398;2023-06-22T06:45:05;37.63;;;26.67;;
46651;SDS011;32377;52.182;5.398;2023-06-22T06:47:31;32.58;;;26.65;;
46651;SDS011;32377;52.182;5.398;2023-06-22T06:49:57;34.08;;;26.60;;
46651;SDS011;32377;52.182;5.398;2023-06-22T06:52:23;34.67;;;27.05;;
46651;SDS011;32377;52.182;5.398;2023-06-22T06:54:48;29.23;;;24.17;;
46651;SDS011;32377;52.182;5.398;2023-06-22T06:57:16;30.33;;;23.65;;
46651;SDS011;32377;52.182;5.398;2023-06-22T06:59:42;33.00;;;24.17;;
46651;SDS011;32377;52.182;5.398;2023-06-22T07:02:08;28.60;;;23.73;;
46651;SDS011;32377;52.182;5.398;2023-06-22T07:04:33;30.42;;;24.08;;
46651;SDS011;32377;52.182;5.398;2023-06-22T07:07:00;29.60;;;23.30;;
46651;SDS011;32377;52.182;5.398;2023-06-22T07:09:27;28.30;;;23.60;;
46651;SDS011;32377;52.182;5.398;2023-06-22T07:11:52;31.83;;;25.65;;
46651;SDS011;32377;52.182;5.398;2023-06-22T07:14:18;31.40;;;24.02;;
46651;SDS011;32377;52.182;5.398;2023-06-22T07:16:43;29.27;;;22.48;;
46651;SDS011;32377;52.182;5.398;2023-06-22T07:19:11;29.90;;;22.35;;
46651;SDS011;32377;52.182;5.398;2023-06-22T07:21:37;28.38;;;22.02;;
46651;SDS011;32377;52.182;5.398;2023-06-22T07:24:04;29.33;;;22.60;;
46651;SDS011;32377;52.182;5.398;2023-06-22T07:26:31;25.95;;;21.83;;
46651;SDS011;32377;52.182;5.398;2023-06-22T07:28:56;25.00;;;21.05;;
46651;SDS011;32377;52.182;5.398;2023-06-22T07:31:23;28.65;;;21.20;;
46651;SDS011;32377;52.182;5.398;2023-06-22T07:33:50;25.83;;;20.05;;
46651;SDS011;32377;52.182;5.398;2023-06-22T07:36:16;25.85;;;20.83;;
46651;SDS011;32377;52.182;5.398;2023-06-22T07:38:42;23.25;;;19.50;;
46651;SDS011;32377;52.182;5.398;2023-06-22T07:41:08;25.98;;;18.77;;
46651;SDS011;32377;52.182;5.398;2023-06-22T07:43:33;20.45;;;16.70;;
46651;SDS011;32377;52.182;5.398;2023-06-22T07:46:02;24.85;;;16.90;;
46651;SDS011;32377;52.182;5.398;2023-06-22T07:48:28;20.17;;;15.90;;
46651;SDS011;32377;52.182;5.398;2023-06-22T07:50:54;21.98;;;15.80;;
46651;SDS011;32377;52.182;5.398;2023-06-22T07:53:20;27.35;;;15.70;;
46651;SDS011;32377;52.182;5.398;2023-06-22T07:55:48;18.95;;;14.73;;
46651;SDS011;32377;52.182;5.398;2023-06-22T07:58:14;18.90;;;14.50;;
46651;SDS011;32377;52.182;5.398;2023-06-22T08:00:40;15.60;;;12.63;;
46651;SDS011;32377;52.182;5.398;2023-06-22T08:03:06;18.63;;;12.18;;
46651;SDS011;32377;52.182;5.398;2023-06-22T08:05:32;15.52;;;12.48;;
46651;SDS011;32377;52.182;5.398;2023-06-22T08:07:58;18.10;;;12.38;;
46651;SDS011;32377;52.182;5.398;2023-06-22T08:10:23;14.90;;;11.50;;
46651;SDS011;32377;52.182;5.398;2023-06-22T08:12:49;16.30;;;12.23;;
46651;SDS011;32377;52.182;5.398;2023-06-22T08:15:16;17.27;;;12.27;;
46651;SDS011;32377;52.182;5.398;2023-06-22T08:17:43;21.67;;;12.80;;
46651;SDS011;32377;52.182;5.398;2023-06-22T08:20:10;14.07;;;11.30;;
46651;SDS011;32377;52.182;5.398;2023-06-22T08:22:39;20.90;;;12.07;;
46651;SDS011;32377;52.182;5.398;2023-06-22T08:25:06;21.23;;;13.80;;
46651;SDS011;32377;52.182;5.398;2023-06-22T08:27:32;13.52;;;11.07;;
46651;SDS011;32377;52.182;5.398;2023-06-22T08:29:58;20.27;;;10.98;;
46651;SDS011;32377;52.182;5.398;2023-06-22T08:32:25;14.35;;;10.52;;
46651;SDS011;32377;52.182;5.398;2023-06-22T08:34:55;14.43;;;10.23;;
46651;SDS011;32377;52.182;5.398;2023-06-22T08:37:22;14.45;;;9.98;;
46651;SDS011;32377;52.182;5.398;2023-06-22T08:39:58;11.80;;;9.43;;
46651;SDS011;32377;52.182;5.398;2023-06-22T08:42:26;11.55;;;8.93;;
46651;SDS011;32377;52.182;5.398;2023-06-22T08:44:51;12.40;;;9.20;;
46651;SDS011;32377;52.182;5.398;2023-06-22T08:47:17;9.45;;;6.60;;
46651;SDS011;32377;52.182;5.398;2023-06-22T08:49:43;12.40;;;7.93;;
46651;SDS011;32377;52.182;5.398;2023-06-22T08:52:09;7.22;;;6.30;;
46651;SDS011;32377;52.182;5.398;2023-06-22T08:54:34;9.48;;;7.07;;
46651;SDS011;32377;52.182;5.398;2023-06-22T08:57:00;9.48;;;7.00;;
46651;SDS011;32377;52.182;5.398;2023-06-22T08:59:27;8.88;;;6.05;;
46651;SDS011;32377;52.182;5.398;2023-06-22T09:01:52;11.05;;;6.70;;
46651;SDS011;32377;52.182;5.398;2023-06-22T09:04:18;8.25;;;6.70;;
46651;SDS011;32377;52.182;5.398;2023-06-22T09:06:43;7.03;;;5.15;;
46651;SDS011;32377;52.182;5.398;2023-06-22T09:09:12;8.18;;;6.28;;
46651;SDS011;32377;52.182;5.398;2023-06-22T09:11:38;10.52;;;6.85;;
46651;SDS011;32377;52.182;5.398;2023-06-22T09:14:03;7.43;;;5.35;;
46651;SDS011;32377;52.182;5.398;2023-06-22T09:16:29;9.90;;;4.82;;
46651;SDS011;32377;52.182;5.398;2023-06-22T09:18:55;6.60;;;4.80;;
46651;SDS011;32377;52.182;5.398;2023-06-22T09:21:21;9.05;;;5.63;;
46651;SDS011;32377;52.182;5.398;2023-06-22T09:23:46;8.00;;;5.22;;
46651;SDS011;32377;52.182;5.398;2023-06-22T09:26:16;8.55;;;6.03;;
46651;SDS011;32377;52.182;5.398;2023-06-22T09:28:45;8.05;;;5.43;;
46651;SDS011;32377;52.182;5.398;2023-06-22T09:31:10;8.10;;;5.05;;
46651;SDS011;32377;52.182;5.398;2023-06-22T09:33:36;8.13;;;5.90;;
46651;SDS011;32377;52.182;5.398;2023-06-22T09:36:06;8.15;;;5.38;;
46651;SDS011;32377;52.182;5.398;2023-06-22T09:38:35;8.45;;;5.35;;
46651;SDS011;32377;52.182;5.398;2023-06-22T09:41:01;8.90;;;6.03;;
46651;SDS011;32377;52.182;5.398;2023-06-22T09:43:27;7.40;;;5.22;;
46651;SDS011;32377;52.182;5.398;2023-06-22T09:45:53;10.60;;;5.38;;
46651;SDS011;32377;52.182;5.398;2023-06-22T09:48:18;7.30;;;4.70;;
46651;SDS011;32377;52.182;5.398;2023-06-22T09:50:44;7.93;;;4.70;;
46651;SDS011;32377;52.182;5.398;2023-06-22T09:53:10;6.72;;;4.50;;
46651;SDS011;32377;52.182;5.398;2023-06-22T09:58:40;7.68;;;4.80;;
46651;SDS011;32377;52.182;5.398;2023-06-22T10:01:07;9.85;;;6.03;;
46651;SDS011;32377;52.182;5.398;2023-06-22T10:03:32;10.23;;;6.50;;
46651;SDS011;32377;52.182;5.398;2023-06-22T10:05:58;14.23;;;8.55;;
46651;SDS011;32377;52.182;5.398;2023-06-22T10:08:23;12.82;;;9.20;;
46651;SDS011;32377;52.182;5.398;2023-06-22T10:10:49;11.57;;;8.85;;
46651;SDS011;32377;52.182;5.398;2023-06-22T10:13:15;15.27;;;9.18;;
46651;SDS011;32377;52.182;5.398;2023-06-22T10:15:41;9.60;;;8.55;;
46651;SDS011;32377;52.182;5.398;2023-06-22T10:18:07;15.30;;;10.35;;
46651;SDS011;32377;52.182;5.398;2023-06-22T10:20:33;14.70;;;10.05;;
46651;SDS011;32377;52.182;5.398;2023-06-22T10:22:58;13.00;;;9.82;;
46651;SDS011;32377;52.182;5.398;2023-06-22T10:25:24;13.52;;;10.15;;
46651;SDS011;32377;52.182;5.398;2023-06-22T10:27:50;14.77;;;11.27;;
46651;SDS011;32377;52.182;5.398;2023-06-22T10:30:15;19.85;;;11.90;;
46651;SDS011;32377;52.182;5.398;2023-06-22T10:32:42;19.63;;;13.02;;
46651;SDS011;32377;52.182;5.398;2023-06-22T10:35:08;15.27;;;12.68;;
46651;SDS011;32377;52.182;5.398;2023-06-22T10:37:35;16.20;;;11.57;;
46651;SDS011;32377;52.182;5.398;2023-06-22T10:40:01;16.65;;;12.85;;
46651;SDS011;32377;52.182;5.398;2023-06-22T10:42:29;18.98;;;12.38;;
46651;SDS011;32377;52.182;5.398;2023-06-22T10:44:54;15.10;;;12.70;;
46651;SDS011;32377;52.182;5.398;2023-06-22T10:47:20;14.23;;;11.52;;
46651;SDS011;32377;52.182;5.398;2023-06-22T10:49:46;15.13;;;11.65;;
46651;SDS011;32377;52.182;5.398;2023-06-22T10:52:12;16.23;;;11.35;;
46651;SDS011;32377;52.182;5.398;2023-06-22T10:54:37;14.90;;;10.93;;
46651;SDS011;32377;52.182;5.398;2023-06-22T10:57:03;16.25;;;10.38;;
46651;SDS011;32377;52.182;5.398;2023-06-22T10:59:29;15.60;;;11.40;;
46651;SDS011;32377;52.182;5.398;2023-06-22T11:01:55;15.55;;;11.23;;
46651;SDS011;32377;52.182;5.398;2023-06-22T11:04:22;18.70;;;12.90;;
46651;SDS011;32377;52.182;5.398;2023-06-22T11:06:48;18.83;;;13.38;;
46651;SDS011;32377;52.182;5.398;2023-06-22T11:09:14;16.33;;;12.90;;
46651;SDS011;32377;52.182;5.398;2023-06-22T11:11:46;16.65;;;12.00;;
46651;SDS011;32377;52.182;5.398;2023-06-22T11:14:12;19.00;;;13.05;;
46651;SDS011;32377;52.182;5.398;2023-06-22T11:16:37;20.13;;;13.00;;
46651;SDS011;32377;52.182;5.398;2023-06-22T11:19:04;17.85;;;13.13;;
46651;SDS011;32377;52.182;5.398;2023-06-22T11:21:30;15.63;;;12.23;;
46651;SDS011;32377;52.182;5.398;2023-06-22T11:23:56;20.33;;;13.43;;
46651;SDS011;32377;52.182;5.398;2023-06-22T11:26:23;15.45;;;12.05;;
46651;SDS011;32377;52.182;5.398;2023-06-22T11:28:49;15.88;;;11.65;;
46651;SDS011;32377;52.182;5.398;2023-06-22T11:31:14;18.40;;;13.40;;
46651;SDS011;32377;52.182;5.398;2023-06-22T11:33:40;14.20;;;11.02;;
46651;SDS011;32377;52.182;5.398;2023-06-22T11:36:05;15.98;;;11.77;;
46651;SDS011;32377;52.182;5.398;2023-06-22T11:38:31;15.07;;;11.43;;
46651;SDS011;32377;52.182;5.398;2023-06-22T11:40:58;12.80;;;11.23;;
46651;SDS011;32377;52.182;5.398;2023-06-22T11:43:24;16.02;;;11.55;;
46651;SDS011;32377;52.182;5.398;2023-06-22T11:45:50;20.33;;;11.85;;
46651;SDS011;32377;52.182;5.398;2023-06-22T11:48:15;17.90;;;12.52;;
46651;SDS011;32377;52.182;5.398;2023-06-22T11:50:41;17.17;;;11.90;;
46651;SDS011;32377;52.182;5.398;2023-06-22T11:53:07;13.30;;;11.90;;
46651;SDS011;32377;52.182;5.398;2023-06-22T11:55:32;19.75;;;11.60;;
46651;SDS011;32377;52.182;5.398;2023-06-22T11:57:58;19.30;;;11.13;;
46651;SDS011;32377;52.182;5.398;2023-06-22T12:00:25;12.70;;;10.57;;
46651;SDS011;32377;52.182;5.398;2023-06-22T12:02:51;18.23;;;11.43;;
46651;SDS011;32377;52.182;5.398;2023-06-22T12:05:20;18.38;;;10.63;;
46651;SDS011;32377;52.182;5.398;2023-06-22T12:07:47;15.35;;;10.73;;
46651;SDS011;32377;52.182;5.398;2023-06-22T12:10:13;21.35;;;11.02;;
46651;SDS011;32377;52.182;5.398;2023-06-22T12:12:39;15.38;;;11.45;;
46651;SDS011;32377;52.182;5.398;2023-06-22T12:15:05;14.25;;;11.25;;
46651;SDS011;32377;52.182;5.398;2023-06-22T12:17:32;14.85;;;10.35;;
46651;SDS011;32377;52.182;5.398;2023-06-22T12:19:58;11.60;;;9.65;;
46651;SDS011;32377;52.182;5.398;2023-06-22T12:22:24;16.13;;;10.55;;
46651;SDS011;32377;52.182;5.398;2023-06-22T12:24:49;12.23;;;9.60;;
46651;SDS011;32377;52.182;5.398;2023-06-22T12:27:16;16.30;;;10.18;;
46651;SDS011;32377;52.182;5.398;2023-06-22T12:29:43;13.55;;;9.02;;
46651;SDS011;32377;52.182;5.398;2023-06-22T12:32:10;18.73;;;9.82;;
46651;SDS011;32377;52.182;5.398;2023-06-22T12:34:38;17.25;;;9.60;;
46651;SDS011;32377;52.182;5.398;2023-06-22T12:37:04;13.88;;;9.57;;
46651;SDS011;32377;52.182;5.398;2023-06-22T12:39:30;11.85;;;9.48;;
46651;SDS011;32377;52.182;5.398;2023-06-22T12:41:56;12.68;;;9.07;;
46651;SDS011;32377;52.182;5.398;2023-06-22T12:44:22;15.95;;;9.02;;
46651;SDS011;32377;52.182;5.398;2023-06-22T12:46:48;11.70;;;8.90;;
46651;SDS011;32377;52.182;5.398;2023-06-22T12:49:13;18.52;;;9.40;;
46651;SDS011;32377;52.182;5.398;2023-06-22T12:51:39;15.35;;;10.05;;
46651;SDS011;32377;52.182;5.398;2023-06-22T12:54:09;16.67;;;9.80;;
46651;SDS011;32377;52.182;5.398;2023-06-22T12:56:35;14.48;;;9.95;;
46651;SDS011;32377;52.182;5.398;2023-06-22T12:59:00;19.90;;;10.43;;
46651;SDS011;32377;52.182;5.398;2023-06-22T13:01:27;15.35;;;10.88;;
46651;SDS011;32377;52.182;5.398;2023-06-22T13:03:53;12.07;;;10.30;;
46651;SDS011;32377;52.182;5.398;2023-06-22T13:06:19;13.27;;;9.95;;
46651;SDS011;32377;52.182;5.398;2023-06-22T13:08:45;14.00;;;11.23;;
46651;SDS011;32377;52.182;5.398;2023-06-22T13:11:10;16.38;;;11.93;;
46651;SDS011;32377;52.182;5.398;2023-06-22T13:13:36;21.63;;;13.32;;
46651;SDS011;32377;52.182;5.398;2023-06-22T13:16:02;18.30;;;13.77;;
46651;SDS011;32377;52.182;5.398;2023-06-22T13:18:27;17.90;;;13.30;;
46651;SDS011;32377;52.182;5.398;2023-06-22T13:20:53;23.92;;;14.35;;
46651;SDS011;32377;52.182;5.398;2023-06-22T13:23:20;20.67;;;14.88;;
46651;SDS011;32377;52.182;5.398;2023-06-22T13:25:46;17.70;;;14.57;;
46651;SDS011;32377;52.182;5.398;2023-06-22T13:28:12;17.25;;;14.55;;
46651;SDS011;32377;52.182;5.398;2023-06-22T13:30:39;19.35;;;15.35;;
46651;SDS011;32377;52.182;5.398;2023-06-22T13:33:05;18.73;;;14.35;;
46651;SDS011;32377;52.182;5.398;2023-06-22T13:35:31;20.27;;;15.25;;
46651;SDS011;32377;52.182;5.398;2023-06-22T13:37:56;18.00;;;15.00;;
46651;SDS011;32377;52.182;5.398;2023-06-22T13:40:22;20.67;;;15.27;;
46651;SDS011;32377;52.182;5.398;2023-06-22T13:42:48;21.70;;;15.05;;
46651;SDS011;32377;52.182;5.398;2023-06-22T13:45:13;22.23;;;15.85;;
46651;SDS011;32377;52.182;5.398;2023-06-22T13:47:41;21.40;;;16.05;;
46651;SDS011;32377;52.182;5.398;2023-06-22T13:50:07;20.23;;;16.23;;
46651;SDS011;32377;52.182;5.398;2023-06-22T13:52:33;21.98;;;17.40;;
46651;SDS011;32377;52.182;5.398;2023-06-22T13:54:58;21.25;;;17.27;;
46651;SDS011;32377;52.182;5.398;2023-06-22T13:57:24;23.73;;;18.50;;
46651;SDS011;32377;52.182;5.398;2023-06-22T13:59:50;26.40;;;19.40;;
46651;SDS011;32377;52.182;5.398;2023-06-22T14:02:15;26.35;;;19.80;;
46651;SDS011;32377;52.182;5.398;2023-06-22T14:04:41;27.27;;;20.10;;
46651;SDS011;32377;52.182;5.398;2023-06-22T14:07:07;28.65;;;20.45;;
46651;SDS011;32377;52.182;5.398;2023-06-22T14:09:32;25.63;;;20.33;;
46651;SDS011;32377;52.182;5.398;2023-06-22T14:12:01;28.75;;;19.40;;
46651;SDS011;32377;52.182;5.398;2023-06-22T14:14:29;27.77;;;19.63;;
46651;SDS011;32377;52.182;5.398;2023-06-22T14:16:54;26.08;;;20.50;;
46651;SDS011;32377;52.182;5.398;2023-06-22T14:19:20;27.98;;;21.98;;
46651;SDS011;32377;52.182;5.398;2023-06-22T14:21:46;28.40;;;22.25;;
46651;SDS011;32377;52.182;5.398;2023-06-22T14:24:11;27.77;;;21.58;;
46651;SDS011;32377;52.182;5.398;2023-06-22T14:26:37;25.70;;;21.23;;
46651;SDS011;32377;52.182;5.398;2023-06-22T14:29:02;23.83;;;21.15;;
46651;SDS011;32377;52.182;5.398;2023-06-22T14:31:29;26.27;;;22.23;;
46651;SDS011;32377;52.182;5.398;2023-06-22T14:33:54;30.08;;;22.23;;
46651;SDS011;32377;52.182;5.398;2023-06-22T14:36:20;26.73;;;22.08;;